Time;durP1;ratioP1;P1;durP2;ratioP2;P2;SDS_P1;SDS_P2;PMS_P1;PMS_P2;Temp;Humidity;BMP_temperature;BMP_pressure;BME280_temperature;BME280_humidity;BME280_pressure;Samples;Min_cycle;Max_cycle;Signal;HPM_P1;HPM_P2
2024/02/20 00:01:36;;;;;;;2.43;0.97;;;;;;;;;;5056243;28;20427;-79
2024/02/20 00:04:02;;;;;;;3.87;1.00;;;;;;;;;;5056160;28;20455;-81
2024/02/20 00:06:29;;;;;;;4.90;0.77;;;;;;;;;;5056034;28;20983;-83
2024/02/20 00:08:55;;;;;;;1.73;0.63;;;;;;;;;;5055895;28;20411;-79
2024/02/20 00:11:21;;;;;;;7.80;1.87;;;;;;;;;;5055113;28;20962;-89
2024/02/20 00:13:47;;;;;;;3.60;0.67;;;;;;;;;;5056229;28;20461;-79
2024/02/20 00:16:14;;;;;;;1.43;0.60;;;;;;;;;;5054762;28;20523;-87
2024/02/20 00:18:40;;;;;;;2.90;0.83;;;;;;;;;;5055774;28;20415;-79
2024/02/20 00:21:06;;;;;;;3.43;1.00;;;;;;;;;;5055962;28;20509;-80
2024/02/20 00:23:32;;;;;;;4.27;0.80;;;;;;;;;;5055674;28;20843;-81
2024/02/20 00:25:59;;;;;;;3.43;1.27;;;;;;;;;;5055911;28;20512;-81
2024/02/20 00:28:25;;;;;;;2.53;0.50;;;;;;;;;;5055727;28;20411;-83
2024/02/20 00:30:51;;;;;;;1.93;0.70;;;;;;;;;;5055266;28;20568;-80
2024/02/20 00:33:17;;;;;;;1.93;0.70;;;;;;;;;;5055529;28;20810;-85
2024/02/20 00:35:43;;;;;;;6.53;1.20;;;;;;;;;;5054291;28;20425;-86
2024/02/20 00:38:08;;;;;;;5.90;1.50;;;;;;;;;;5055364;28;20410;-85
2024/02/20 00:40:34;;;;;;;3.80;0.70;;;;;;;;;;5055296;28;20818;-79
2024/02/20 00:43:00;;;;;;;7.47;1.40;;;;;;;;;;5037377;28;20503;-79
2024/02/20 00:45:27;;;;;;;5.17;0.87;;;;;;;;;;5055666;28;20497;-82
2024/02/20 00:47:53;;;;;;;3.67;1.20;;;;;;;;;;5037345;28;20484;-80
2024/02/20 00:50:19;;;;;;;4.00;0.83;;;;;;;;;;5055239;28;20408;-81
2024/02/20 00:52:45;;;;;;;8.30;1.20;;;;;;;;;;5055125;28;20428;-84
2024/02/20 00:55:13;;;;;;;4.70;1.07;;;;;;;;;;5055052;28;20427;-80
2024/02/20 00:57:39;;;;;;;6.17;2.30;;;;;;;;;;5055084;28;20507;-80
2024/02/20 01:00:05;;;;;;;3.67;1.30;;;;;;;;;;5055009;28;20547;-83
2024/02/20 01:02:31;;;;;;;5.47;1.80;;;;;;;;;;5058351;28;20419;-79
2024/02/20 01:04:57;;;;;;;6.40;2.63;;;;;;;;;;5055120;28;20494;-82
2024/02/20 01:07:24;;;;;;;6.83;1.73;;;;;;;;;;5054853;28;20500;-84
2024/02/20 01:09:50;;;;;;;5.43;2.00;;;;;;;;;;5036987;28;20188;-79
2024/02/20 01:12:19;;;;;;;5.50;1.90;;;;;;;;;;5053916;28;20950;-80
2024/02/20 01:14:45;;;;;;;5.00;2.37;;;;;;;;;;5036981;28;20178;-79
2024/02/20 01:17:11;;;;;;;9.00;2.40;;;;;;;;;;5036320;28;20419;-83
2024/02/20 01:19:37;;;;;;;9.50;2.27;;;;;;;;;;5054849;28;20904;-79
2024/02/20 01:22:03;;;;;;;6.90;2.07;;;;;;;;;;5054560;28;20807;-78
2024/02/20 01:24:29;;;;;;;7.23;2.13;;;;;;;;;;5054587;28;20830;-87
2024/02/20 01:26:55;;;;;;;6.40;2.70;;;;;;;;;;5054655;28;20488;-80
2024/02/20 01:29:24;;;;;;;6.97;2.40;;;;;;;;;;5036324;28;20420;-81
2024/02/20 01:31:50;;;;;;;6.47;2.70;;;;;;;;;;5048079;28;20483;-80
2024/02/20 01:34:16;;;;;;;8.37;2.47;;;;;;;;;;5054328;28;20421;-84
2024/02/20 01:36:42;;;;;;;8.10;2.23;;;;;;;;;;5054210;28;20511;-79
2024/02/20 01:39:08;;;;;;;4.43;1.90;;;;;;;;;;5053028;28;20412;-83
2024/02/20 01:41:34;;;;;;;8.90;2.67;;;;;;;;;;5054322;28;20422;-80
2024/02/20 01:43:59;;;;;;;11.13;2.00;;;;;;;;;;5052850;28;20917;-80
2024/02/20 01:46:26;;;;;;;12.27;2.40;;;;;;;;;;5053792;28;20427;-84
2024/02/20 01:48:52;;;;;;;3.23;0.97;;;;;;;;;;5054055;28;20175;-79
2024/02/20 01:51:18;;;;;;;7.53;1.93;;;;;;;;;;5053799;28;20474;-79
2024/02/20 01:53:45;;;;;;;8.40;1.70;;;;;;;;;;5049566;28;20759;-80
2024/02/20 01:56:13;;;;;;;8.40;1.70;;;;;;;;;;5052654;28;20823;-80
2024/02/20 01:58:40;;;;;;;7.17;1.37;;;;;;;;;;5053653;28;20412;-78
2024/02/20 02:01:06;;;;;;;7.30;1.40;;;;;;;;;;5053439;28;20425;-79
2024/02/20 02:03:32;;;;;;;3.10;1.53;;;;;;;;;;5053384;28;20415;-79
2024/02/20 02:05:58;;;;;;;5.47;1.80;;;;;;;;;;5052113;28;20514;-78
2024/02/20 02:08:24;;;;;;;5.60;1.03;;;;;;;;;;5053827;28;20499;-79
2024/02/20 02:10:49;;;;;;;3.73;1.57;;;;;;;;;;5053503;28;20458;-81
2024/02/20 02:13:15;;;;;;;2.30;0.70;;;;;;;;;;5053745;28;20469;-82
2024/02/20 02:15:42;;;;;;;2.60;0.40;;;;;;;;;;5053527;28;20826;-82
2024/02/20 02:18:08;;;;;;;2.30;0.60;;;;;;;;;;5053171;28;20412;-81
2024/02/20 02:20:34;;;;;;;4.00;0.33;;;;;;;;;;5053011;28;20465;-79
2024/02/20 02:23:00;;;;;;;5.90;1.40;;;;;;;;;;5053470;28;20409;-79
2024/02/20 02:25:26;;;;;;;8.17;0.93;;;;;;;;;;5053450;28;20427;-80
2024/02/20 02:27:53;;;;;;;4.17;0.60;;;;;;;;;;5053343;28;20427;-81
2024/02/20 02:30:23;;;;;;;6.73;0.87;;;;;;;;;;5053016;28;20456;-83
2024/02/20 02:32:50;;;;;;;11.03;1.43;;;;;;;;;;5052940;28;20970;-81
2024/02/20 02:35:16;;;;;;;2.50;0.50;;;;;;;;;;5035349;28;20421;-80
2024/02/20 02:37:42;;;;;;;6.37;0.73;;;;;;;;;;5053207;28;20416;-80
2024/02/20 02:40:08;;;;;;;13.00;1.07;;;;;;;;;;5053213;28;20759;-79
2024/02/20 02:42:34;;;;;;;5.03;1.10;;;;;;;;;;5052998;28;20411;-78
2024/02/20 02:45:00;;;;;;;5.23;0.90;;;;;;;;;;5052962;28;20489;-77
2024/02/20 02:47:26;;;;;;;8.20;1.80;;;;;;;;;;5052438;28;20428;-80
2024/02/20 02:49:52;;;;;;;6.77;1.63;;;;;;;;;;5052910;28;20416;-78
2024/02/20 02:52:18;;;;;;;10.33;2.33;;;;;;;;;;5052811;28;20970;-78
2024/02/20 02:54:44;;;;;;;7.57;1.53;;;;;;;;;;5052833;28;20405;-77
2024/02/20 02:57:11;;;;;;;17.37;1.87;;;;;;;;;;5052931;28;20892;-77
2024/02/20 02:59:37;;;;;;;19.13;2.97;;;;;;;;;;5052652;28;20415;-80
2024/02/20 03:02:08;;;;;;;12.87;3.03;;;;;;;;;;5051603;28;20419;-83
2024/02/20 03:04:34;;;;;;;19.67;4.00;;;;;;;;;;5052808;28;20899;-78
2024/02/20 03:07:00;;;;;;;16.97;3.97;;;;;;;;;;5052760;28;20410;-77
2024/02/20 03:09:27;;;;;;;17.03;3.13;;;;;;;;;;5052779;28;20418;-78
2024/02/20 03:11:53;;;;;;;16.27;3.60;;;;;;;;;;5052621;28;20907;-78
2024/02/20 03:14:21;;;;;;;18.57;3.23;;;;;;;;;;5052631;28;20440;-79
2024/02/20 03:16:47;;;;;;;15.77;3.10;;;;;;;;;;5050998;28;20447;-80
2024/02/20 03:19:14;;;;;;;17.23;3.80;;;;;;;;;;5051433;28;20443;-78
2024/02/20 03:21:41;;;;;;;15.67;2.73;;;;;;;;;;5051388;28;20417;-81
2024/02/20 03:24:09;;;;;;;20.83;3.10;;;;;;;;;;5052636;28;20736;-77
2024/02/20 03:26:35;;;;;;;14.87;3.97;;;;;;;;;;5052496;28;20910;-79
2024/02/20 03:29:02;;;;;;;20.70;3.90;;;;;;;;;;5052522;28;20519;-78
2024/02/20 03:31:29;;;;;;;10.77;2.20;;;;;;;;;;5051789;28;20574;-80
2024/02/20 03:33:54;;;;;;;20.43;4.03;;;;;;;;;;5053132;28;20407;-78
2024/02/20 03:36:20;;;;;;;20.83;3.40;;;;;;;;;;5056559;28;20435;-82
2024/02/20 03:38:46;;;;;;;23.07;3.63;;;;;;;;;;5056372;28;20418;-81
2024/02/20 03:41:12;;;;;;;16.30;2.87;;;;;;;;;;5056528;28;20422;-77
2024/02/20 03:43:38;;;;;;;21.17;3.37;;;;;;;;;;5056500;28;20900;-79
2024/02/20 03:46:09;;;;;;;14.03;3.43;;;;;;;;;;5056110;28;20765;-80
2024/02/20 03:48:34;;;;;;;16.17;2.93;;;;;;;;;;5055154;28;20786;-83
2024/02/20 03:51:00;;;;;;;17.07;2.57;;;;;;;;;;5056222;28;20876;-82
2024/02/20 03:53:27;;;;;;;16.80;2.50;;;;;;;;;;5056283;28;20468;-79
2024/02/20 03:55:53;;;;;;;17.00;3.30;;;;;;;;;;5056171;28;20415;-78
2024/02/20 03:58:19;;;;;;;15.30;2.50;;;;;;;;;;5056001;28;20481;-77
2024/02/20 04:00:45;;;;;;;12.63;2.37;;;;;;;;;;5056165;28;20439;-83
2024/02/20 04:03:10;;;;;;;16.10;1.70;;;;;;;;;;5054442;28;20852;-78
2024/02/20 04:05:37;;;;;;;15.00;2.50;;;;;;;;;;5054701;28;20503;-77
2024/02/20 04:08:03;;;;;;;15.23;2.50;;;;;;;;;;5056015;28;20501;-80
2024/02/20 04:10:29;;;;;;;17.27;2.90;;;;;;;;;;5055749;28;20480;-77
2024/02/20 04:12:55;;;;;;;17.33;3.37;;;;;;;;;;5055875;28;20430;-77
2024/02/20 04:15:21;;;;;;;17.77;2.37;;;;;;;;;;5055856;28;20834;-77
2024/02/20 04:17:47;;;;;;;22.23;2.77;;;;;;;;;;5055333;28;20412;-78
2024/02/20 04:20:13;;;;;;;21.93;3.10;;;;;;;;;;5055713;28;20409;-78
2024/02/20 04:22:39;;;;;;;18.53;1.70;;;;;;;;;;5055654;28;20410;-80
2024/02/20 04:25:05;;;;;;;14.70;2.57;;;;;;;;;;5055623;28;20414;-78
2024/02/20 04:27:31;;;;;;;13.80;2.63;;;;;;;;;;5055602;28;20499;-77
2024/02/20 04:29:57;;;;;;;18.67;1.60;;;;;;;;;;5055328;28;20407;-77
2024/02/20 04:32:23;;;;;;;21.20;3.20;;;;;;;;;;5055143;28;20485;-77
2024/02/20 04:34:50;;;;;;;18.87;3.67;;;;;;;;;;5055467;28;20434;-77
2024/02/20 04:37:16;;;;;;;34.10;4.33;;;;;;;;;;5055387;28;20414;-82
2024/02/20 04:39:46;;;;;;;20.43;4.30;;;;;;;;;;5055382;28;20414;-77
2024/02/20 04:42:12;;;;;;;13.63;2.40;;;;;;;;;;5055278;28;20423;-79
2024/02/20 04:44:38;;;;;;;17.93;3.33;;;;;;;;;;5055339;28;20748;-78
2024/02/20 04:47:05;;;;;;;16.37;2.40;;;;;;;;;;5053642;28;20422;-79
2024/02/20 04:49:31;;;;;;;19.63;4.27;;;;;;;;;;5055125;28;20414;-82
2024/02/20 04:51:57;;;;;;;33.07;5.80;;;;;;;;;;5055033;28;20976;-80
2024/02/20 04:54:26;;;;;;;22.40;2.97;;;;;;;;;;5055139;28;20421;-80
2024/02/20 04:56:52;;;;;;;17.03;5.73;;;;;;;;;;5055024;28;20418;-79
2024/02/20 04:59:19;;;;;;;24.10;2.57;;;;;;;;;;5054895;28;20414;-81
2024/02/20 05:01:46;;;;;;;24.00;4.80;;;;;;;;;;5054551;28;20419;-79
2024/02/20 05:04:12;;;;;;;33.33;5.10;;;;;;;;;;5053695;28;20427;-83
2024/02/20 05:06:38;;;;;;;23.63;3.70;;;;;;;;;;5054834;28;20497;-79
2024/02/20 05:09:05;;;;;;;15.50;2.57;;;;;;;;;;5054857;28;20862;-79
2024/02/20 05:11:31;;;;;;;17.30;3.13;;;;;;;;;;5054670;28;20471;-79
2024/02/20 05:13:57;;;;;;;18.87;4.03;;;;;;;;;;5054695;28;20433;-79
2024/02/20 05:16:23;;;;;;;28.23;4.57;;;;;;;;;;5053120;28;20428;-79
2024/02/20 05:18:49;;;;;;;18.17;3.93;;;;;;;;;;5054697;28;20420;-79
2024/02/20 05:21:15;;;;;;;18.73;3.73;;;;;;;;;;5054606;28;20511;-79
2024/02/20 05:23:40;;;;;;;22.77;5.90;;;;;;;;;;5054528;28;20419;-78
2024/02/20 05:26:06;;;;;;;20.87;4.20;;;;;;;;;;5054517;28;20858;-79
2024/02/20 05:28:35;;;;;;;26.00;3.90;;;;;;;;;;5054443;28;20412;-79
2024/02/20 05:31:01;;;;;;;26.50;4.67;;;;;;;;;;5053823;28;20844;-78
2024/02/20 05:33:28;;;;;;;18.83;5.77;;;;;;;;;;5054430;28;20407;-79
2024/02/20 05:35:54;;;;;;;34.87;5.43;;;;;;;;;;5054356;28;20419;-80
2024/02/20 05:38:20;;;;;;;20.87;6.20;;;;;;;;;;5054279;28;20961;-78
2024/02/20 05:40:46;;;;;;;28.07;4.27;;;;;;;;;;5054147;28;20482;-79
2024/02/20 05:43:12;;;;;;;29.87;5.00;;;;;;;;;;5054288;28;20418;-83
2024/02/20 05:45:38;;;;;;;22.90;4.20;;;;;;;;;;5052839;28;20432;-79
2024/02/20 05:48:04;;;;;;;19.80;4.10;;;;;;;;;;5054000;28;20423;-84
2024/02/20 05:50:31;;;;;;;20.87;4.10;;;;;;;;;;5054028;28;20773;-79
2024/02/20 05:52:57;;;;;;;35.40;5.17;;;;;;;;;;5053816;28;20521;-82
2024/02/20 05:55:23;;;;;;;22.10;5.23;;;;;;;;;;5053966;28;20446;-83
2024/02/20 05:57:49;;;;;;;27.63;6.43;;;;;;;;;;5061488;28;20447;-82
2024/02/20 06:00:15;;;;;;;31.13;4.70;;;;;;;;;;5064210;28;20763;-83
2024/02/20 06:02:41;;;;;;;19.37;4.20;;;;;;;;;;5061068;28;20986;-84
2024/02/20 06:05:07;;;;;;;27.60;4.37;;;;;;;;;;5055972;28;20418;-83
2024/02/20 06:07:33;;;;;;;25.47;4.73;;;;;;;;;;5052244;28;20411;-81
2024/02/20 06:09:59;;;;;;;24.80;5.57;;;;;;;;;;5052034;28;20502;-80
2024/02/20 06:12:26;;;;;;;23.23;3.70;;;;;;;;;;5053070;28;20581;-79
2024/02/20 06:14:52;;;;;;;23.87;4.80;;;;;;;;;;5053409;28;20432;-83
2024/02/20 06:17:18;;;;;;;25.90;5.87;;;;;;;;;;5052287;28;20935;-80
2024/02/20 06:19:44;;;;;;;25.73;6.17;;;;;;;;;;5052835;28;20427;-80
2024/02/20 06:22:10;;;;;;;22.40;6.27;;;;;;;;;;5052585;28;20446;-79
2024/02/20 06:24:36;;;;;;;26.47;4.67;;;;;;;;;;5053200;28;20443;-78
2024/02/20 06:27:06;;;;;;;15.90;2.97;;;;;;;;;;5051944;28;20910;-80
2024/02/20 06:29:32;;;;;;;24.40;5.30;;;;;;;;;;5053315;28;20773;-78
2024/02/20 06:31:59;;;;;;;29.90;4.93;;;;;;;;;;5052652;28;20487;-78
2024/02/20 06:34:25;;;;;;;26.33;5.20;;;;;;;;;;5053127;28;20767;-83
2024/02/20 06:36:51;;;;;;;27.10;5.40;;;;;;;;;;5052996;28;20416;-82
2024/02/20 06:39:17;;;;;;;16.53;3.87;;;;;;;;;;5053166;28;20422;-80
2024/02/20 06:41:43;;;;;;;25.37;5.07;;;;;;;;;;5053069;28;20766;-81
2024/02/20 06:44:09;;;;;;;19.57;4.30;;;;;;;;;;5053093;28;20426;-80
2024/02/20 06:46:39;;;;;;;23.97;5.20;;;;;;;;;;5052654;28;20407;-81
2024/02/20 06:49:05;;;;;;;28.17;4.30;;;;;;;;;;5052877;28;20412;-81
2024/02/20 06:51:31;;;;;;;15.77;3.43;;;;;;;;;;5051651;28;20462;-80
2024/02/20 06:53:57;;;;;;;34.00;8.57;;;;;;;;;;5052922;28;20427;-80
2024/02/20 06:56:23;;;;;;;21.20;3.70;;;;;;;;;;5051539;28;20753;-81
2024/02/20 06:58:50;;;;;;;27.20;5.80;;;;;;;;;;5052665;28;20450;-81
2024/02/20 07:01:15;;;;;;;25.83;4.43;;;;;;;;;;5052387;28;20448;-84
2024/02/20 07:03:42;;;;;;;30.30;4.57;;;;;;;;;;5052703;28;20428;-81
2024/02/20 07:06:14;;;;;;;24.10;4.23;;;;;;;;;;5052769;28;20415;-80
2024/02/20 07:08:43;;;;;;;26.30;7.20;;;;;;;;;;5052075;28;20423;-79
2024/02/20 07:11:11;;;;;;;27.10;5.20;;;;;;;;;;5052582;28;20633;-82
2024/02/20 07:13:38;;;;;;;14.40;3.43;;;;;;;;;;5052508;28;20423;-78
2024/02/20 07:16:08;;;;;;;26.87;6.93;;;;;;;;;;5052042;28;20429;-79
2024/02/20 07:18:36;;;;;;;24.93;3.80;;;;;;;;;;5051251;28;20413;-83
2024/02/20 07:21:03;;;;;;;26.80;3.57;;;;;;;;;;5051198;28;20430;-80
2024/02/20 07:23:30;;;;;;;27.13;6.57;;;;;;;;;;5052519;28;20423;-78
2024/02/20 07:25:56;;;;;;;29.60;5.73;;;;;;;;;;5052274;28;20414;-80
2024/02/20 07:28:22;;;;;;;25.37;3.67;;;;;;;;;;5052259;28;20804;-78
2024/02/20 07:30:48;;;;;;;34.00;6.40;;;;;;;;;;5059053;28;20497;-79
2024/02/20 07:33:14;;;;;;;24.80;4.10;;;;;;;;;;5072518;28;20896;-82
2024/02/20 07:35:40;;;;;;;25.23;5.03;;;;;;;;;;5072513;28;20450;-81
2024/02/20 07:38:06;;;;;;;33.53;4.07;;;;;;;;;;5072527;28;20480;-84
2024/02/20 07:40:32;;;;;;;24.10;4.93;;;;;;;;;;5072312;28;20927;-80
2024/02/20 07:43:00;;;;;;;19.07;3.33;;;;;;;;;;5069617;28;20509;-79
2024/02/20 07:45:29;;;;;;;30.07;6.13;;;;;;;;;;5036914;28;20497;-80
2024/02/20 07:47:56;;;;;;;22.93;5.00;;;;;;;;;;5040809;28;20435;-79
2024/02/20 07:50:22;;;;;;;16.70;3.60;;;;;;;;;;5040408;28;20823;-79
2024/02/20 07:52:48;;;;;;;21.83;3.33;;;;;;;;;;5040864;28;20501;-79
2024/02/20 07:55:17;;;;;;;16.33;4.20;;;;;;;;;;5034877;28;20509;-77
2024/02/20 07:57:43;;;;;;;26.17;3.60;;;;;;;;;;5032297;28;20797;-77
2024/02/20 08:00:13;;;;;;;15.20;4.33;;;;;;;;;;5032198;28;20463;-77
2024/02/20 08:02:39;;;;;;;27.77;4.67;;;;;;;;;;5031868;28;20425;-77
2024/02/20 08:05:05;;;;;;;20.40;4.37;;;;;;;;;;5032101;28;20427;-77
2024/02/20 08:07:32;;;;;;;28.43;5.90;;;;;;;;;;5032475;28;20412;-78
2024/02/20 08:09:58;;;;;;;22.83;4.43;;;;;;;;;;5032163;28;20418;-82
2024/02/20 08:12:24;;;;;;;30.03;5.17;;;;;;;;;;5032045;28;20508;-78
2024/02/20 08:14:50;;;;;;;28.00;4.80;;;;;;;;;;5032090;28;20726;-79
2024/02/20 08:17:17;;;;;;;30.27;5.37;;;;;;;;;;5031637;28;20558;-78
2024/02/20 08:19:43;;;;;;;28.90;4.63;;;;;;;;;;5032344;28;20416;-79
2024/02/20 08:22:09;;;;;;;23.73;3.50;;;;;;;;;;5035689;28;20500;-77
2024/02/20 08:24:35;;;;;;;22.87;5.03;;;;;;;;;;5035476;28;20469;-78
2024/02/20 08:27:03;;;;;;;22.57;4.70;;;;;;;;;;5035425;28;20444;-78
2024/02/20 08:29:32;;;;;;;22.20;5.00;;;;;;;;;;5035593;28;20768;-78
2024/02/20 08:31:58;;;;;;;28.33;4.03;;;;;;;;;;5034875;28;20506;-81
2024/02/20 08:34:24;;;;;;;14.50;3.30;;;;;;;;;;5035540;28;20404;-80
2024/02/20 08:36:50;;;;;;;20.10;3.07;;;;;;;;;;5035547;28;20413;-78
2024/02/20 08:39:16;;;;;;;24.20;5.60;;;;;;;;;;5035323;28;20414;-79
2024/02/20 08:41:42;;;;;;;21.53;3.83;;;;;;;;;;5035391;28;20420;-78
2024/02/20 08:44:08;;;;;;;23.37;4.50;;;;;;;;;;5035269;28;20235;-79
2024/02/20 08:46:34;;;;;;;16.10;3.40;;;;;;;;;;5034936;28;20478;-80
2024/02/20 08:49:02;;;;;;;19.17;4.30;;;;;;;;;;5035235;28;20461;-78
2024/02/20 08:51:28;;;;;;;16.77;3.70;;;;;;;;;;5035191;28;20510;-78
2024/02/20 08:53:54;;;;;;;22.83;5.07;;;;;;;;;;5035118;28;20435;-78
2024/02/20 08:56:21;;;;;;;17.63;3.37;;;;;;;;;;5035139;28;20216;-79
2024/02/20 08:58:50;;;;;;;17.17;3.67;;;;;;;;;;5035139;28;20178;-79
2024/02/20 09:01:16;;;;;;;18.77;3.50;;;;;;;;;;5034709;28;20409;-81
2024/02/20 09:03:42;;;;;;;16.23;3.73;;;;;;;;;;5034980;28;20464;-79
2024/02/20 09:06:08;;;;;;;18.70;4.37;;;;;;;;;;5034937;28;20650;-78
2024/02/20 09:08:33;;;;;;;12.30;2.70;;;;;;;;;;5034808;28;20410;-79
2024/02/20 09:11:03;;;;;;;15.53;3.10;;;;;;;;;;5034727;28;20474;-79
2024/02/20 09:13:29;;;;;;;15.50;3.27;;;;;;;;;;5034765;28;20419;-79
2024/02/20 09:15:55;;;;;;;20.00;3.63;;;;;;;;;;5033022;28;20521;-79
2024/02/20 09:18:22;;;;;;;14.00;3.23;;;;;;;;;;5034717;28;20515;-82
2024/02/20 09:20:48;;;;;;;15.17;3.80;;;;;;;;;;5036574;28;20418;-82
2024/02/20 09:23:13;;;;;;;13.00;2.80;;;;;;;;;;5054532;28;20418;-80
2024/02/20 09:25:43;;;;;;;15.87;3.20;;;;;;;;;;5054451;28;20170;-79
2024/02/20 09:28:09;;;;;;;13.00;2.70;;;;;;;;;;5054418;28;20168;-82
2024/02/20 09:30:35;;;;;;;13.73;3.60;;;;;;;;;;5053884;28;20468;-79
2024/02/20 09:33:01;;;;;;;14.50;4.10;;;;;;;;;;5052441;28;20238;-78
2024/02/20 09:35:27;;;;;;;13.37;3.27;;;;;;;;;;5054215;28;20412;-79
2024/02/20 09:37:56;;;;;;;19.20;5.00;;;;;;;;;;5054216;28;20170;-80
2024/02/20 09:40:22;;;;;;;12.50;2.70;;;;;;;;;;5054012;28;20176;-80
2024/02/20 09:42:49;;;;;;;17.00;3.97;;;;;;;;;;5054126;28;20415;-81
2024/02/20 09:45:22;;;;;;;9.70;3.00;;;;;;;;;;5053802;28;20176;-83
2024/02/20 09:47:48;;;;;;;12.63;2.93;;;;;;;;;;5054008;28;20488;-83
2024/02/20 09:50:16;;;;;;;14.33;3.13;;;;;;;;;;5052400;28;20935;-76
2024/02/20 09:52:45;;;;;;;13.50;3.10;;;;;;;;;;5053955;28;20466;-82
2024/02/20 09:55:11;;;;;;;15.90;3.10;;;;;;;;;;5052738;28;20414;-81
2024/02/20 09:57:37;;;;;;;12.00;3.10;;;;;;;;;;5053933;28;20847;-76
2024/02/20 10:00:03;;;;;;;16.10;3.20;;;;;;;;;;5053514;28;20417;-76
2024/02/20 10:02:30;;;;;;;14.00;3.07;;;;;;;;;;5053744;28;20181;-77
2024/02/20 10:04:56;;;;;;;11.47;3.73;;;;;;;;;;5053609;28;20416;-80
2024/02/20 10:07:22;;;;;;;13.00;3.73;;;;;;;;;;5053508;28;20502;-81
2024/02/20 10:09:48;;;;;;;11.87;3.00;;;;;;;;;;5052295;28;20211;-80
2024/02/20 10:12:18;;;;;;;16.70;3.80;;;;;;;;;;5053519;28;20473;-77
2024/02/20 10:14:44;;;;;;;13.10;2.57;;;;;;;;;;5053595;28;20820;-83
2024/02/20 10:17:11;;;;;;;11.63;2.50;;;;;;;;;;5053324;28;20416;-80
2024/02/20 10:19:37;;;;;;;16.10;2.80;;;;;;;;;;5053627;28;20451;-79
2024/02/20 10:22:03;;;;;;;14.80;2.80;;;;;;;;;;5053540;28;20441;-80
2024/02/20 10:24:29;;;;;;;15.40;2.60;;;;;;;;;;5053447;28;20417;-80
2024/02/20 10:26:55;;;;;;;17.93;3.23;;;;;;;;;;5053423;28;20454;-82
2024/02/20 10:29:22;;;;;;;11.73;1.83;;;;;;;;;;5053212;28;20409;-79
2024/02/20 10:31:48;;;;;;;18.27;3.90;;;;;;;;;;5052894;28;20485;-81
2024/02/20 10:34:19;;;;;;;22.90;5.33;;;;;;;;;;5053429;28;20415;-79
2024/02/20 10:36:45;;;;;;;11.03;3.40;;;;;;;;;;5053386;28;20418;-79
2024/02/20 10:39:11;;;;;;;11.80;4.80;;;;;;;;;;5053375;28;20915;-79
2024/02/20 10:41:37;;;;;;;15.10;4.00;;;;;;;;;;5053220;28;21121;-79
2024/02/20 10:44:04;;;;;;;18.13;3.33;;;;;;;;;;5051017;28;20954;-80
2024/02/20 10:46:35;;;;;;;17.30;3.23;;;;;;;;;;5052923;28;20447;-80
2024/02/20 10:49:04;;;;;;;12.00;2.57;;;;;;;;;;5053178;28;20397;-82
2024/02/20 10:51:30;;;;;;;12.17;3.93;;;;;;;;;;5052907;28;20477;-79
2024/02/20 10:53:57;;;;;;;19.57;4.00;;;;;;;;;;5061441;28;20742;-80
2024/02/20 10:56:26;;;;;;;10.57;3.60;;;;;;;;;;5053309;28;20427;-79
2024/02/20 10:58:53;;;;;;;15.93;4.73;;;;;;;;;;5053061;28;20407;-79
2024/02/20 11:01:19;;;;;;;10.43;2.00;;;;;;;;;;5052786;28;20472;-80
2024/02/20 11:03:47;;;;;;;10.80;3.20;;;;;;;;;;5051507;28;20449;-79
2024/02/20 11:06:14;;;;;;;12.73;4.17;;;;;;;;;;5052600;28;20475;-78
2024/02/20 11:08:39;;;;;;;12.97;2.30;;;;;;;;;;5051267;28;20420;-80
2024/02/20 11:11:10;;;;;;;16.03;2.90;;;;;;;;;;5052546;28;20474;-79
2024/02/20 11:13:36;;;;;;;13.43;2.60;;;;;;;;;;5052637;28;20174;-80
2024/02/20 11:16:10;;;;;;;12.00;1.97;;;;;;;;;;5052405;28;20442;-81
2024/02/20 11:18:36;;;;;;;15.97;3.37;;;;;;;;;;5053068;28;20787;-80
2024/02/20 11:21:05;;;;;;;15.30;2.20;;;;;;;;;;5052915;28;20451;-81
2024/02/20 11:23:31;;;;;;;15.87;4.43;;;;;;;;;;5052939;28;20473;-82
2024/02/20 11:26:07;;;;;;;15.07;2.80;;;;;;;;;;5052801;28;20898;-82
2024/02/20 11:28:34;;;;;;;16.13;3.70;;;;;;;;;;5051837;28;20942;-81
2024/02/20 11:31:01;;;;;;;8.63;2.70;;;;;;;;;;5052634;28;20477;-83
2024/02/20 11:33:30;;;;;;;8.80;1.90;;;;;;;;;;5052786;28;20781;-81
2024/02/20 11:35:56;;;;;;;21.37;4.17;;;;;;;;;;5052568;28;20760;-82
2024/02/20 11:38:22;;;;;;;15.13;3.73;;;;;;;;;;5052673;28;20769;-85
2024/02/20 11:40:48;;;;;;;18.63;4.00;;;;;;;;;;5052931;28;20406;-86
2024/02/20 11:43:16;;;;;;;14.97;3.37;;;;;;;;;;5051356;28;20762;-80
2024/02/20 11:45:43;;;;;;;14.13;3.63;;;;;;;;;;5052145;28;20396;-78
2024/02/20 11:48:10;;;;;;;14.23;3.43;;;;;;;;;;5052541;28;20403;-80
2024/02/20 11:50:40;;;;;;;13.80;3.43;;;;;;;;;;5052115;28;20877;-81
2024/02/20 11:53:13;;;;;;;18.17;3.77;;;;;;;;;;5052142;28;20516;-78
2024/02/20 11:55:43;;;;;;;12.37;3.57;;;;;;;;;;5054180;28;20408;-78
2024/02/20 11:58:10;;;;;;;17.23;6.87;;;;;;;;;;5056090;28;20443;-78
2024/02/20 12:00:37;;;;;;;14.83;4.00;;;;;;;;;;5050938;28;20772;-79
2024/02/20 12:03:03;;;;;;;18.00;3.93;;;;;;;;;;5054869;28;20420;-81
2024/02/20 12:05:37;;;;;;;14.13;3.77;;;;;;;;;;5056095;28;20408;-80
2024/02/20 12:08:11;;;;;;;13.30;5.07;;;;;;;;;;5037543;28;20420;-80
2024/02/20 12:10:46;;;;;;;23.87;5.40;;;;;;;;;;5055807;28;20442;-79
2024/02/20 12:13:13;;;;;;;11.47;3.73;;;;;;;;;;5055830;28;20407;-78
2024/02/20 12:15:39;;;;;;;20.70;6.10;;;;;;;;;;5055641;28;20764;-80
2024/02/20 12:18:05;;;;;;;15.40;4.50;;;;;;;;;;5038076;28;20833;-81
2024/02/20 12:20:31;;;;;;;14.90;4.30;;;;;;;;;;5055790;28;20514;-80
2024/02/20 12:23:00;;;;;;;13.07;5.10;;;;;;;;;;5055788;28;20513;-79
2024/02/20 12:25:26;;;;;;;15.80;4.07;;;;;;;;;;5055621;28;20184;-80
2024/02/20 12:27:55;;;;;;;18.17;4.93;;;;;;;;;;5037476;28;20416;-79
2024/02/20 12:30:21;;;;;;;8.40;3.70;;;;;;;;;;5055077;28;20882;-80
2024/02/20 12:32:47;;;;;;;13.70;4.70;;;;;;;;;;5055502;28;20517;-78
2024/02/20 12:35:13;;;;;;;15.10;5.13;;;;;;;;;;5055534;28;20404;-79
2024/02/20 12:37:39;;;;;;;16.03;5.13;;;;;;;;;;5055382;28;20832;-79
2024/02/20 12:40:08;;;;;;;16.10;3.87;;;;;;;;;;5065362;28;20510;-81
2024/02/20 12:42:34;;;;;;;19.33;5.07;;;;;;;;;;5075149;28;20830;-80
2024/02/20 12:45:03;;;;;;;15.23;3.87;;;;;;;;;;5074757;28;20452;-83
2024/02/20 12:47:29;;;;;;;18.40;3.20;;;;;;;;;;5074986;28;20414;-78
2024/02/20 12:49:55;;;;;;;17.10;5.10;;;;;;;;;;5073737;28;20418;-79
2024/02/20 12:52:21;;;;;;;11.90;3.67;;;;;;;;;;5073544;28;20568;-80
2024/02/20 12:54:46;;;;;;;14.33;4.30;;;;;;;;;;5073719;28;20406;-79
2024/02/20 12:57:12;;;;;;;17.43;4.50;;;;;;;;;;5074947;28;20171;-79
2024/02/20 12:59:38;;;;;;;19.50;4.37;;;;;;;;;;5074503;28;20202;-81
2024/02/20 13:02:05;;;;;;;25.13;5.63;;;;;;;;;;5074854;28;20875;-83
2024/02/20 13:04:34;;;;;;;13.67;2.97;;;;;;;;;;5061680;28;20411;-81
2024/02/20 13:07:00;;;;;;;19.43;4.10;;;;;;;;;;5053739;28;20414;-80
2024/02/20 13:09:29;;;;;;;16.10;5.30;;;;;;;;;;5054827;28;20770;-84
2024/02/20 13:12:03;;;;;;;14.63;3.90;;;;;;;;;;5054768;28;20475;-81
2024/02/20 13:14:30;;;;;;;13.67;5.10;;;;;;;;;;5054571;28;20907;-83
2024/02/20 13:16:56;;;;;;;16.07;3.97;;;;;;;;;;5054664;28;20953;-80
2024/02/20 13:19:22;;;;;;;15.17;3.40;;;;;;;;;;5054531;28;20412;-80
2024/02/20 13:21:48;;;;;;;17.00;3.60;;;;;;;;;;5054710;28;20464;-79
2024/02/20 13:24:14;;;;;;;22.30;4.90;;;;;;;;;;5054683;28;20412;-80
2024/02/20 13:26:40;;;;;;;13.77;3.87;;;;;;;;;;5054729;28;20419;-87
2024/02/20 13:29:10;;;;;;;12.80;3.40;;;;;;;;;;5054628;28;20412;-79
2024/02/20 13:31:36;;;;;;;15.13;3.90;;;;;;;;;;5053925;28;20577;-80
2024/02/20 13:34:03;;;;;;;13.93;3.47;;;;;;;;;;5054457;28;20498;-79
2024/02/20 13:36:29;;;;;;;17.60;2.80;;;;;;;;;;5054154;28;20471;-79
2024/02/20 13:38:55;;;;;;;18.23;3.90;;;;;;;;;;5054336;28;20442;-84
2024/02/20 13:41:26;;;;;;;19.60;3.40;;;;;;;;;;5069555;28;20422;-77
2024/02/20 13:43:52;;;;;;;21.17;4.70;;;;;;;;;;5053132;28;20791;-79
2024/02/20 13:46:18;;;;;;;20.77;5.20;;;;;;;;;;5053892;28;20426;-80
2024/02/20 13:48:44;;;;;;;16.30;4.27;;;;;;;;;;5054152;28;20415;-79
2024/02/20 13:51:10;;;;;;;18.23;3.87;;;;;;;;;;5054036;28;20481;-80
2024/02/20 13:53:36;;;;;;;15.30;4.43;;;;;;;;;;5054132;28;20498;-82
2024/02/20 13:56:03;;;;;;;14.07;4.50;;;;;;;;;;5053784;28;20430;-79
2024/02/20 13:58:29;;;;;;;22.30;4.47;;;;;;;;;;5053343;28;20750;-81
2024/02/20 14:00:55;;;;;;;18.53;5.43;;;;;;;;;;5053440;28;20457;-82
2024/02/20 14:03:26;;;;;;;24.47;5.20;;;;;;;;;;5053826;28;20435;-79
2024/02/20 14:05:52;;;;;;;11.20;2.80;;;;;;;;;;5053840;28;20427;-84
2024/02/20 14:08:19;;;;;;;15.87;3.63;;;;;;;;;;5053547;28;20415;-81
2024/02/20 14:10:45;;;;;;;20.90;6.13;;;;;;;;;;5053293;28;20423;-81
2024/02/20 14:13:11;;;;;;;22.17;5.17;;;;;;;;;;5053501;28;20916;-79
2024/02/20 14:15:37;;;;;;;19.53;4.23;;;;;;;;;;5053292;28;20447;-81
2024/02/20 14:18:04;;;;;;;15.67;3.10;;;;;;;;;;5053415;28;20411;-80
2024/02/20 14:20:30;;;;;;;24.33;3.93;;;;;;;;;;5053465;28;20423;-83
2024/02/20 14:22:56;;;;;;;17.07;4.70;;;;;;;;;;5053351;28;20411;-78
2024/02/20 14:25:22;;;;;;;18.00;4.40;;;;;;;;;;5053399;28;20445;-82
2024/02/20 14:27:48;;;;;;;16.43;4.23;;;;;;;;;;5053476;28;20497;-81
2024/02/20 14:30:14;;;;;;;13.90;4.67;;;;;;;;;;5052707;28;20944;-79